Time;durP1;ratioP1;P1;durP2;ratioP2;P2;SDS_P1;SDS_P2;PMS_P1;PMS_P2;Temp;Humidity;BMP_temperature;BMP_pressure;BME280_temperature;BME280_humidity;BME280_pressure;Samples;Min_cycle;Max_cycle;Signal;HPM_P1;HPM_P2
2022/04/15 00:00:36;;;;;;;28.00;12.57;;;;;;;;;;4969671;28;20379;-64
2022/04/15 00:03:02;;;;;;;35.70;11.98;;;;;;;;;;4969012;28;20379;-64
2022/04/15 00:05:37;;;;;;;33.47;11.60;;;;;;;;;;4968943;28;20425;-65
2022/04/15 00:08:07;;;;;;;26.33;12.20;;;;;;;;;;4972189;28;20566;-64
2022/04/15 00:10:33;;;;;;;30.60;12.05;;;;;;;;;;4974000;28;20403;-64
2022/04/15 00:12:59;;;;;;;28.10;11.05;;;;;;;;;;4972942;28;20440;-65
2022/04/15 00:15:25;;;;;;;35.30;13.80;;;;;;;;;;4973151;28;20341;-65
2022/04/15 00:17:51;;;;;;;38.13;14.32;;;;;;;;;;4972654;28;20321;-64
2022/04/15 00:20:16;;;;;;;30.42;12.95;;;;;;;;;;4970773;28;20354;-64
2022/04/15 00:22:42;;;;;;;29.30;13.18;;;;;;;;;;4972897;28;20435;-65
2022/04/15 00:25:10;;;;;;;31.17;12.90;;;;;;;;;;4973485;28;20453;-64
2022/04/15 00:27:35;;;;;;;28.80;11.85;;;;;;;;;;4973373;28;20547;-64
2022/04/15 00:30:01;;;;;;;24.90;11.23;;;;;;;;;;4972805;28;20327;-65
2022/04/15 00:32:27;;;;;;;30.33;11.15;;;;;;;;;;4972896;28;20341;-64
2022/04/15 00:34:53;;;;;;;32.55;11.77;;;;;;;;;;4972511;28;20550;-64
2022/04/15 00:37:18;;;;;;;33.08;12.93;;;;;;;;;;4972775;28;20045;-64
2022/04/15 00:39:45;;;;;;;41.97;14.50;;;;;;;;;;4973689;28;20022;-64
2022/04/15 00:42:11;;;;;;;32.65;13.50;;;;;;;;;;4973602;28;20412;-65
2022/04/15 00:44:37;;;;;;;36.08;14.05;;;;;;;;;;4971722;28;20483;-64
2022/04/15 00:47:07;;;;;;;45.30;15.52;;;;;;;;;;4972151;28;20349;-65
2022/04/15 00:49:33;;;;;;;33.67;13.30;;;;;;;;;;4954439;28;20052;-64
2022/04/15 00:51:58;;;;;;;42.72;16.23;;;;;;;;;;4954312;28;20495;-64
2022/04/15 00:54:29;;;;;;;32.65;13.35;;;;;;;;;;4954951;28;20314;-64
2022/04/15 00:56:56;;;;;;;44.50;16.38;;;;;;;;;;4971738;28;20429;-64
2022/04/15 00:59:21;;;;;;;42.45;14.95;;;;;;;;;;4954159;28;20376;-65
2022/04/15 01:01:47;;;;;;;45.72;16.42;;;;;;;;;;4983788;28;20364;-64
2022/04/15 01:04:12;;;;;;;48.75;17.35;;;;;;;;;;4954178;28;20428;-64
2022/04/15 01:06:38;;;;;;;38.30;15.68;;;;;;;;;;4953986;28;20107;-65
2022/04/15 01:09:04;;;;;;;37.15;15.68;;;;;;;;;;4972187;28;20043;-64
2022/04/15 01:11:30;;;;;;;36.33;14.50;;;;;;;;;;4973025;28;20353;-64
2022/04/15 01:13:59;;;;;;;34.67;14.23;;;;;;;;;;4954291;28;20341;-65
2022/04/15 01:16:24;;;;;;;38.05;13.98;;;;;;;;;;4971745;28;20364;-64
2022/04/15 01:18:50;;;;;;;41.40;15.25;;;;;;;;;;4953056;28;20318;-65
2022/04/15 01:21:16;;;;;;;45.15;13.80;;;;;;;;;;4972066;28;20429;-64
2022/04/15 01:23:41;;;;;;;36.58;13.88;;;;;;;;;;4954168;28;20460;-64
2022/04/15 01:26:07;;;;;;;37.42;13.98;;;;;;;;;;4973538;28;20304;-64
2022/04/15 01:28:33;;;;;;;39.15;14.35;;;;;;;;;;4971538;28;20155;-64
2022/04/15 01:30:58;;;;;;;30.77;14.10;;;;;;;;;;4972033;28;20041;-64
2022/04/15 01:33:23;;;;;;;35.40;15.70;;;;;;;;;;4971443;28;20463;-64
2022/04/15 01:35:49;;;;;;;34.83;14.65;;;;;;;;;;4971706;28;20440;-64
2022/04/15 01:38:17;;;;;;;43.70;14.38;;;;;;;;;;4973178;28;20128;-64
2022/04/15 01:40:43;;;;;;;34.13;14.25;;;;;;;;;;4971508;28;20324;-64
2022/04/15 01:43:10;;;;;;;32.33;13.20;;;;;;;;;;4971239;28;20033;-64
2022/04/15 01:45:35;;;;;;;31.45;14.02;;;;;;;;;;4971260;28;20415;-64
2022/04/15 01:48:03;;;;;;;38.30;14.23;;;;;;;;;;4971441;28;20346;-64
2022/04/15 01:50:28;;;;;;;35.60;13.80;;;;;;;;;;4971006;28;20384;-65
2022/04/15 01:52:55;;;;;;;38.08;15.75;;;;;;;;;;4971456;28;20433;-64
2022/04/15 01:55:21;;;;;;;41.80;13.88;;;;;;;;;;4953290;28;20044;-64
2022/04/15 01:57:46;;;;;;;35.75;14.55;;;;;;;;;;4971316;28;20025;-64
2022/04/15 02:00:11;;;;;;;39.08;13.60;;;;;;;;;;4971114;28;20033;-64
2022/04/15 02:02:37;;;;;;;28.45;12.60;;;;;;;;;;4971104;28;20380;-64
2022/04/15 02:05:02;;;;;;;42.10;15.88;;;;;;;;;;4971777;28;20065;-64
2022/04/15 02:07:28;;;;;;;37.30;13.23;;;;;;;;;;4971732;28;20401;-64
2022/04/15 02:09:53;;;;;;;32.00;13.00;;;;;;;;;;4970978;28;20348;-64
2022/04/15 02:12:18;;;;;;;40.60;14.52;;;;;;;;;;4971309;28;20479;-65
2022/04/15 02:14:46;;;;;;;37.35;14.85;;;;;;;;;;4970954;28;20449;-64
2022/04/15 02:17:11;;;;;;;35.15;13.63;;;;;;;;;;4970637;28;20462;-64
2022/04/15 02:19:36;;;;;;;34.63;14.55;;;;;;;;;;4971210;28;20342;-64
2022/04/15 02:22:02;;;;;;;30.38;13.63;;;;;;;;;;4971039;28;20402;-64
2022/04/15 02:24:27;;;;;;;41.80;13.65;;;;;;;;;;4971147;28;20424;-64
2022/04/15 02:26:52;;;;;;;39.13;12.93;;;;;;;;;;4970347;28;20472;-64
2022/04/15 02:29:18;;;;;;;35.65;14.25;;;;;;;;;;4970948;28;20449;-64
2022/04/15 02:31:43;;;;;;;38.42;13.93;;;;;;;;;;4970144;28;20437;-65
2022/04/15 02:34:08;;;;;;;36.88;14.32;;;;;;;;;;4971568;28;20357;-64
2022/04/15 02:36:34;;;;;;;43.85;14.27;;;;;;;;;;4971950;28;20117;-64
2022/04/15 02:38:59;;;;;;;36.53;14.48;;;;;;;;;;4970657;28;20352;-65
2022/04/15 02:41:25;;;;;;;38.90;13.88;;;;;;;;;;4971737;28;20100;-64
2022/04/15 02:43:50;;;;;;;39.13;13.77;;;;;;;;;;4952304;28;20433;-64
2022/04/15 02:46:16;;;;;;;40.33;14.43;;;;;;;;;;4970876;28;20515;-64
2022/04/15 02:48:41;;;;;;;31.08;14.23;;;;;;;;;;4970254;28;20356;-64
2022/04/15 02:51:07;;;;;;;38.63;13.30;;;;;;;;;;4952665;28;20413;-64
2022/04/15 02:53:33;;;;;;;33.42;13.88;;;;;;;;;;4952405;28;20026;-64
2022/04/15 02:55:58;;;;;;;36.40;14.55;;;;;;;;;;4970365;28;20385;-64
2022/04/15 02:58:24;;;;;;;32.22;12.60;;;;;;;;;;4970401;28;20468;-64
2022/04/15 03:00:49;;;;;;;31.83;11.82;;;;;;;;;;4970177;28;20429;-64
2022/04/15 03:03:14;;;;;;;30.73;12.98;;;;;;;;;;4970134;28;20433;-64
2022/04/15 03:05:41;;;;;;;34.28;13.38;;;;;;;;;;4969883;28;20132;-64
2022/04/15 03:08:06;;;;;;;28.67;11.95;;;;;;;;;;4970282;28;20460;-64
2022/04/15 03:10:32;;;;;;;31.10;12.23;;;;;;;;;;4970666;28;20373;-64
2022/04/15 03:12:57;;;;;;;38.97;13.43;;;;;;;;;;4970601;28;20055;-64
2022/04/15 03:15:22;;;;;;;29.35;12.52;;;;;;;;;;4970242;28;20018;-64
2022/04/15 03:17:47;;;;;;;30.30;13.82;;;;;;;;;;4970669;28;20418;-65
2022/04/15 03:20:13;;;;;;;30.38;12.15;;;;;;;;;;4969860;28;20099;-64
2022/04/15 03:22:40;;;;;;;30.20;12.13;;;;;;;;;;4969984;28;20464;-64
2022/04/15 03:25:07;;;;;;;27.05;12.05;;;;;;;;;;4969880;28;20367;-64
2022/04/15 03:27:33;;;;;;;28.95;12.32;;;;;;;;;;4969714;28;20352;-64
2022/04/15 03:29:59;;;;;;;26.40;11.57;;;;;;;;;;4969511;28;20360;-64
2022/04/15 03:32:25;;;;;;;23.08;11.32;;;;;;;;;;4970170;28;20372;-64
2022/04/15 03:34:57;;;;;;;31.98;13.07;;;;;;;;;;4970241;28;20342;-64
2022/04/15 03:37:22;;;;;;;32.22;11.88;;;;;;;;;;4969823;28;20448;-64
2022/04/15 03:39:48;;;;;;;25.90;11.52;;;;;;;;;;4969885;28;20388;-64
2022/04/15 03:42:13;;;;;;;31.10;13.00;;;;;;;;;;4970560;28;20030;-64
2022/04/15 03:44:38;;;;;;;28.15;12.85;;;;;;;;;;4969295;28;20045;-65
2022/04/15 03:47:05;;;;;;;26.33;11.50;;;;;;;;;;4969557;28;20428;-65
2022/04/15 03:49:30;;;;;;;30.13;13.23;;;;;;;;;;4969788;28;20495;-65
2022/04/15 03:51:55;;;;;;;36.40;11.80;;;;;;;;;;4969423;28;20448;-64
2022/04/15 03:54:21;;;;;;;27.58;11.95;;;;;;;;;;4969326;28;20476;-64
2022/04/15 03:56:46;;;;;;;26.05;12.15;;;;;;;;;;4970094;28;20502;-64
2022/04/15 03:59:12;;;;;;;28.65;11.85;;;;;;;;;;4971122;28;20479;-64
2022/04/15 04:01:37;;;;;;;29.02;13.20;;;;;;;;;;4970451;28;20029;-66
2022/04/15 04:04:03;;;;;;;33.35;11.57;;;;;;;;;;4969213;28;20507;-65
2022/04/15 04:06:28;;;;;;;26.20;12.30;;;;;;;;;;4969426;28;20079;-64
2022/04/15 04:08:54;;;;;;;30.85;12.98;;;;;;;;;;4969352;28;20449;-64
2022/04/15 04:11:20;;;;;;;30.75;11.85;;;;;;;;;;4969578;28;20448;-64
2022/04/15 04:13:46;;;;;;;23.80;11.43;;;;;;;;;;4969776;28;20336;-64
2022/04/15 04:16:12;;;;;;;27.95;11.93;;;;;;;;;;4969382;28;20306;-64
2022/04/15 04:18:40;;;;;;;32.75;11.98;;;;;;;;;;4970881;28;20417;-64
2022/04/15 04:21:06;;;;;;;28.80;12.15;;;;;;;;;;4970219;28;20340;-66
2022/04/15 04:23:32;;;;;;;26.23;11.55;;;;;;;;;;4970443;28;20021;-65
2022/04/15 04:25:57;;;;;;;27.02;11.73;;;;;;;;;;4971212;28;20456;-65
2022/04/15 04:28:22;;;;;;;22.65;10.80;;;;;;;;;;4969714;28;20555;-65
2022/04/15 04:30:48;;;;;;;21.52;10.45;;;;;;;;;;4969133;28;20072;-64
2022/04/15 04:33:13;;;;;;;24.60;11.05;;;;;;;;;;4968882;28;20091;-64
2022/04/15 04:35:39;;;;;;;23.35;9.88;;;;;;;;;;4970803;28;20340;-64
2022/04/15 04:38:05;;;;;;;26.05;10.73;;;;;;;;;;4969651;28;20397;-64
2022/04/15 04:40:31;;;;;;;20.65;10.32;;;;;;;;;;4969921;28;20443;-64
2022/04/15 04:42:57;;;;;;;22.83;10.27;;;;;;;;;;4951764;28;20017;-65
2022/04/15 04:45:23;;;;;;;23.92;11.40;;;;;;;;;;4968619;28;20524;-64
2022/04/15 04:47:48;;;;;;;24.88;9.90;;;;;;;;;;4969289;28;20332;-64
2022/04/15 04:50:14;;;;;;;26.58;9.90;;;;;;;;;;4951197;28;20329;-64
2022/04/15 04:52:40;;;;;;;24.10;9.85;;;;;;;;;;4968720;28;20380;-65
2022/04/15 04:55:07;;;;;;;22.67;9.27;;;;;;;;;;4971144;28;20503;-64
2022/04/15 04:57:32;;;;;;;20.63;9.50;;;;;;;;;;4973243;28;20368;-64
2022/04/15 04:59:58;;;;;;;28.73;10.07;;;;;;;;;;4972628;28;20342;-64
2022/04/15 05:02:23;;;;;;;20.13;9.68;;;;;;;;;;4972069;28;20467;-64
2022/04/15 05:04:49;;;;;;;21.27;9.43;;;;;;;;;;4971980;28;20367;-64
2022/04/15 05:07:14;;;;;;;20.45;8.63;;;;;;;;;;4972020;28;20384;-64
2022/04/15 05:09:41;;;;;;;18.83;9.82;;;;;;;;;;4972223;28;20447;-63
2022/04/15 05:12:08;;;;;;;18.30;8.93;;;;;;;;;;4972487;28;20025;-64
2022/04/15 05:14:33;;;;;;;17.88;8.23;;;;;;;;;;4972245;28;20390;-63
2022/04/15 05:16:58;;;;;;;21.63;8.98;;;;;;;;;;4971795;28;20339;-63
2022/04/15 05:19:24;;;;;;;20.80;10.65;;;;;;;;;;4972394;28;20129;-64
2022/04/15 05:21:49;;;;;;;19.83;9.75;;;;;;;;;;4971625;28;20443;-63
2022/04/15 05:24:14;;;;;;;25.27;10.05;;;;;;;;;;4972253;28;20030;-64
2022/04/15 05:26:40;;;;;;;24.13;10.18;;;;;;;;;;4971830;28;20503;-64
2022/04/15 05:29:05;;;;;;;25.17;9.05;;;;;;;;;;4971562;28;20437;-64
2022/04/15 05:31:30;;;;;;;21.90;9.00;;;;;;;;;;4971408;28;20502;-64
2022/04/15 05:33:55;;;;;;;17.70;8.82;;;;;;;;;;4971785;28;20389;-63
2022/04/15 05:36:21;;;;;;;24.50;10.77;;;;;;;;;;4973061;28;20437;-64
2022/04/15 05:38:46;;;;;;;25.55;9.60;;;;;;;;;;4971681;28;20464;-64
2022/04/15 05:41:11;;;;;;;21.30;9.75;;;;;;;;;;4972388;28;20048;-63
2022/04/15 05:43:37;;;;;;;18.23;8.73;;;;;;;;;;4971313;28;20523;-64
2022/04/15 05:46:03;;;;;;;18.48;9.35;;;;;;;;;;4971788;28;20448;-64
2022/04/15 05:48:28;;;;;;;22.17;8.90;;;;;;;;;;4971286;28;20366;-64
2022/04/15 05:50:54;;;;;;;17.27;7.97;;;;;;;;;;4971290;28;20029;-63
2022/04/15 05:53:19;;;;;;;18.75;8.57;;;;;;;;;;4971420;28;20425;-63
2022/04/15 05:55:44;;;;;;;18.77;8.88;;;;;;;;;;4971785;28;20467;-66
2022/04/15 05:58:10;;;;;;;21.65;10.02;;;;;;;;;;4972967;28;20372;-63
2022/04/15 06:00:36;;;;;;;23.30;9.13;;;;;;;;;;4971281;28;20508;-64
2022/04/15 06:03:02;;;;;;;21.63;8.57;;;;;;;;;;4970962;28;20026;-64
2022/04/15 06:05:27;;;;;;;18.27;8.77;;;;;;;;;;4970838;28;20502;-64
2022/04/15 06:07:53;;;;;;;21.55;9.52;;;;;;;;;;4953248;28;20532;-63
2022/04/15 06:10:18;;;;;;;22.40;8.55;;;;;;;;;;4971351;28;20092;-63
2022/04/15 06:15:31;;;;;;;22.23;9.63;;;;;;;;;;4970883;28;20052;-64
2022/04/15 06:17:57;;;;;;;21.92;9.30;;;;;;;;;;4971107;28;20111;-63
2022/04/15 06:20:23;;;;;;;18.35;8.68;;;;;;;;;;4970549;28;20026;-64
2022/04/15 06:22:48;;;;;;;21.65;9.20;;;;;;;;;;4971095;28;20402;-64
2022/04/15 06:25:13;;;;;;;18.02;9.38;;;;;;;;;;4970751;28;20432;-63
2022/04/15 06:27:39;;;;;;;16.40;8.43;;;;;;;;;;4970554;28;20405;-64
2022/04/15 06:30:05;;;;;;;16.42;8.00;;;;;;;;;;4970401;28;20421;-63
2022/04/15 06:32:31;;;;;;;17.05;8.63;;;;;;;;;;4970763;28;20467;-63
2022/04/15 06:34:56;;;;;;;21.40;8.13;;;;;;;;;;4970096;28;20457;-63
2022/04/15 06:37:21;;;;;;;21.33;7.85;;;;;;;;;;4970183;28;20496;-63
2022/04/15 06:39:50;;;;;;;16.20;8.88;;;;;;;;;;4970145;28;20030;-63
2022/04/15 06:42:22;;;;;;;17.30;7.97;;;;;;;;;;4970133;28;20048;-63
2022/04/15 06:44:48;;;;;;;18.45;8.15;;;;;;;;;;4970090;28;20335;-64
2022/04/15 06:47:13;;;;;;;15.73;7.32;;;;;;;;;;4969919;28;20100;-63
2022/04/15 06:49:38;;;;;;;16.77;7.85;;;;;;;;;;4970495;28;20483;-63
2022/04/15 06:52:04;;;;;;;14.98;7.57;;;;;;;;;;4969751;28;20432;-63
2022/04/15 06:54:29;;;;;;;16.85;8.13;;;;;;;;;;4970234;28;20529;-63
2022/04/15 06:56:55;;;;;;;14.20;7.78;;;;;;;;;;4969591;28;20377;-63
2022/04/15 06:59:20;;;;;;;17.20;8.40;;;;;;;;;;4969529;28;20521;-63
2022/04/15 07:01:46;;;;;;;19.08;9.23;;;;;;;;;;4969816;28;20509;-63
2022/04/15 07:04:12;;;;;;;19.17;8.85;;;;;;;;;;4971714;28;20344;-63
2022/04/15 07:06:37;;;;;;;19.77;8.55;;;;;;;;;;4969577;28;20356;-64
2022/04/15 07:09:02;;;;;;;13.57;7.25;;;;;;;;;;4969746;28;20033;-63
2022/04/15 07:11:28;;;;;;;22.20;7.65;;;;;;;;;;4969535;28;20504;-63
2022/04/15 07:13:53;;;;;;;13.68;7.50;;;;;;;;;;4969489;28;20432;-62
2022/04/15 07:16:18;;;;;;;16.35;8.30;;;;;;;;;;4971181;28;20344;-64
2022/04/15 07:18:44;;;;;;;16.70;8.85;;;;;;;;;;4969352;28;20391;-64
2022/04/15 07:21:11;;;;;;;14.13;7.00;;;;;;;;;;4969401;28;20103;-64
2022/04/15 07:23:36;;;;;;;17.73;8.20;;;;;;;;;;4969534;28;20030;-64
2022/04/15 07:26:02;;;;;;;14.55;8.00;;;;;;;;;;4970312;28;20429;-63
2022/04/15 07:28:27;;;;;;;15.65;9.38;;;;;;;;;;4969972;28;20392;-63
2022/04/15 07:30:52;;;;;;;18.55;9.27;;;;;;;;;;4969221;28;20409;-63
2022/04/15 07:33:19;;;;;;;16.10;7.38;;;;;;;;;;4969785;28;20375;-63
2022/04/15 07:35:45;;;;;;;17.08;7.75;;;;;;;;;;4969510;28;20322;-63
2022/04/15 07:38:10;;;;;;;14.18;7.45;;;;;;;;;;4969513;28;20052;-63
2022/04/15 07:40:36;;;;;;;17.77;7.88;;;;;;;;;;4969706;28;20452;-63
2022/04/15 07:43:01;;;;;;;15.07;7.78;;;;;;;;;;4970235;28;20057;-63
2022/04/15 07:45:27;;;;;;;16.70;7.57;;;;;;;;;;4969610;28;20384;-63
2022/04/15 07:47:52;;;;;;;13.63;7.28;;;;;;;;;;4969008;28;20449;-62
2022/04/15 07:50:25;;;;;;;15.20;7.55;;;;;;;;;;4969735;28;20487;-63
2022/04/15 07:52:55;;;;;;;14.80;7.75;;;;;;;;;;4969410;28;20344;-62
2022/04/15 07:55:20;;;;;;;13.73;7.20;;;;;;;;;;4969581;28;20352;-64
2022/04/15 07:57:45;;;;;;;15.93;7.35;;;;;;;;;;4968017;28;20364;-63
2022/04/15 08:00:11;;;;;;;17.42;6.82;;;;;;;;;;4969067;28;20429;-63
2022/04/15 08:02:37;;;;;;;17.60;7.60;;;;;;;;;;4968799;28;20377;-62
2022/04/15 08:05:03;;;;;;;14.65;6.97;;;;;;;;;;4969082;28;20347;-62
2022/04/15 08:07:28;;;;;;;17.85;7.85;;;;;;;;;;4969235;28;20026;-63
2022/04/15 08:09:53;;;;;;;17.25;8.05;;;;;;;;;;4968862;28;20338;-63
2022/04/15 08:12:18;;;;;;;13.98;6.78;;;;;;;;;;4969388;28;20325;-63
2022/04/15 08:14:44;;;;;;;15.00;7.22;;;;;;;;;;4968758;28;20426;-63
2022/04/15 08:17:09;;;;;;;18.98;8.15;;;;;;;;;;4968940;28;20488;-62
2022/04/15 08:19:35;;;;;;;20.30;8.43;;;;;;;;;;4969811;28;20464;-62
2022/04/15 08:22:01;;;;;;;16.52;8.38;;;;;;;;;;4969872;28;20229;-63
2022/04/15 08:24:27;;;;;;;12.60;6.88;;;;;;;;;;4969461;28;20489;-62
2022/04/15 08:26:56;;;;;;;16.77;8.00;;;;;;;;;;4970556;28;20447;-64
2022/04/15 08:29:21;;;;;;;14.05;7.15;;;;;;;;;;4971300;28;20436;-63
2022/04/15 08:31:47;;;;;;;18.15;7.93;;;;;;;;;;4972697;28;20444;-63
2022/04/15 08:34:12;;;;;;;13.80;6.70;;;;;;;;;;4972656;28;20314;-62
2022/04/15 08:36:37;;;;;;;11.80;6.53;;;;;;;;;;4973297;28;20467;-62
2022/04/15 08:39:03;;;;;;;15.80;7.68;;;;;;;;;;4972668;28;20470;-63
2022/04/15 08:41:34;;;;;;;15.05;7.53;;;;;;;;;;4972385;28;20025;-62
2022/04/15 08:44:00;;;;;;;16.70;7.30;;;;;;;;;;4972872;28;20364;-63
2022/04/15 08:46:28;;;;;;;16.25;8.57;;;;;;;;;;4954661;28;20337;-63
2022/04/15 08:48:54;;;;;;;19.55;8.27;;;;;;;;;;4973343;28;20419;-62
2022/04/15 08:51:19;;;;;;;12.52;7.57;;;;;;;;;;4954591;28;20440;-62
2022/04/15 08:53:46;;;;;;;13.88;6.80;;;;;;;;;;4972540;28;21133;-63
2022/04/15 08:56:12;;;;;;;16.92;7.88;;;;;;;;;;4973029;28;20395;-62
2022/04/15 08:58:37;;;;;;;17.13;8.60;;;;;;;;;;4972859;28;20317;-62
2022/04/15 09:01:02;;;;;;;14.70;7.45;;;;;;;;;;4972312;28;20372;-62
2022/04/15 09:03:28;;;;;;;14.25;7.40;;;;;;;;;;4972005;28;20352;-62
2022/04/15 09:05:54;;;;;;;21.42;8.32;;;;;;;;;;4972339;28;20453;-62
2022/04/15 09:08:19;;;;;;;12.73;6.07;;;;;;;;;;4971388;28;20455;-64
2022/04/15 09:10:54;;;;;;;11.57;6.40;;;;;;;;;;4971785;28;20026;-62
2022/04/15 09:13:21;;;;;;;13.70;6.45;;;;;;;;;;4972292;28;20337;-63
2022/04/15 09:15:46;;;;;;;13.55;7.45;;;;;;;;;;4971788;28;20364;-62
2022/04/15 09:18:27;;;;;;;12.13;7.25;;;;;;;;;;4971695;28;20029;-63
2022/04/15 09:20:52;;;;;;;13.68;6.65;;;;;;;;;;4971824;28;20447;-62
2022/04/15 09:23:19;;;;;;;12.18;5.78;;;;;;;;;;4971704;28;20324;-62
2022/04/15 09:25:46;;;;;;;11.27;6.45;;;;;;;;;;4971705;28;20029;-63
2022/04/15 09:28:13;;;;;;;13.73;6.78;;;;;;;;;;4971625;28;20387;-62
2022/04/15 09:30:39;;;;;;;15.50;6.50;;;;;;;;;;4972623;28;20316;-62
2022/04/15 09:33:05;;;;;;;9.93;6.32;;;;;;;;;;4972843;28;20437;-63
2022/04/15 09:35:30;;;;;;;15.93;7.15;;;;;;;;;;4971278;28;20452;-63
2022/04/15 09:38:04;;;;;;;13.35;6.18;;;;;;;;;;4973134;28;20072;-62
2022/04/15 09:40:35;;;;;;;15.48;6.82;;;;;;;;;;4970088;28;20432;-62
2022/04/15 09:43:02;;;;;;;13.80;6.82;;;;;;;;;;4970960;28;20376;-63
2022/04/15 09:45:30;;;;;;;12.13;6.50;;;;;;;;;;4949879;28;20541;-63
2022/04/15 09:48:08;;;;;;;14.35;6.50;;;;;;;;;;4951694;28;20492;-62
2022/04/15 09:50:42;;;;;;;14.25;6.00;;;;;;;;;;4952432;28;20393;-62
2022/04/15 09:53:13;;;;;;;8.73;5.97;;;;;;;;;;4951427;28;20410;-62
2022/04/15 09:55:44;;;;;;;8.80;4.90;;;;;;;;;;4952344;28;20483;-62
2022/04/15 09:58:13;;;;;;;9.93;5.30;;;;;;;;;;4951829;28;20314;-62
2022/04/15 10:00:39;;;;;;;;;;;;;;;;;;4952216;28;20465;-63
2022/04/15 10:03:09;;;;;;;10.82;5.75;;;;;;;;;;4951446;28;20332;-63
2022/04/15 10:05:36;;;;;;;10.52;5.88;;;;;;;;;;4951456;28;20418;-63
2022/04/15 10:08:02;;;;;;;11.25;5.78;;;;;;;;;;4951287;28;20354;-63
2022/04/15 10:10:29;;;;;;;11.43;5.53;;;;;;;;;;4950989;28;20373;-63
2022/04/15 10:12:55;;;;;;;10.98;5.97;;;;;;;;;;4952135;28;20445;-63
2022/04/15 10:15:21;;;;;;;12.13;5.07;;;;;;;;;;4949767;28;20421;-63
2022/04/15 10:17:46;;;;;;;11.73;5.10;;;;;;;;;;4949521;28;20509;-63
2022/04/15 10:20:11;;;;;;;10.25;5.55;;;;;;;;;;4950295;28;20404;-62
2022/04/15 10:22:38;;;;;;;9.55;4.88;;;;;;;;;;4951274;28;20349;-63
2022/04/15 10:25:07;;;;;;;11.38;5.25;;;;;;;;;;4951504;28;20430;-63
2022/04/15 10:27:33;;;;;;;9.32;5.32;;;;;;;;;;4952477;28;20376;-63
2022/04/15 10:30:14;;;;;;;9.00;4.82;;;;;;;;;;4950667;28;20026;-62
2022/04/15 10:32:49;;;;;;;7.57;3.92;;;;;;;;;;4951062;28;20354;-62
2022/04/15 10:35:20;;;;;;;12.18;5.50;;;;;;;;;;4951224;28;20342;-62
2022/04/15 10:37:46;;;;;;;8.35;4.38;;;;;;;;;;4950578;28;20303;-63
2022/04/15 10:40:22;;;;;;;9.88;4.85;;;;;;;;;;4950913;28;20557;-62
2022/04/15 10:42:48;;;;;;;8.70;4.95;;;;;;;;;;4950296;28;20342;-63
2022/04/15 10:45:27;;;;;;;8.35;4.57;;;;;;;;;;4964703;28;20392;-63
2022/04/15 10:47:59;;;;;;;8.25;4.75;;;;;;;;;;4970092;28;20021;-63
2022/04/15 10:50:29;;;;;;;10.75;5.35;;;;;;;;;;4970033;28;20445;-62
2022/04/15 10:53:16;;;;;;;9.50;4.72;;;;;;;;;;4970143;28;20390;-63
2022/04/15 10:55:43;;;;;;;7.25;4.30;;;;;;;;;;4952744;28;20344;-62
2022/04/15 10:58:12;;;;;;;9.70;5.38;;;;;;;;;;4969759;28;20025;-63
2022/04/15 11:03:26;;;;;;;8.07;4.32;;;;;;;;;;4955436;28;20401;-63
2022/04/15 11:05:54;;;;;;;8.45;4.80;;;;;;;;;;4970976;28;20380;-63
2022/04/15 11:08:21;;;;;;;10.88;4.65;;;;;;;;;;4969683;28;20430;-63
2022/04/15 11:10:50;;;;;;;8.18;3.80;;;;;;;;;;4969750;28;20048;-63
2022/04/15 11:13:24;;;;;;;8.25;4.25;;;;;;;;;;4952780;28;20334;-63
2022/04/15 11:16:10;;;;;;;7.65;4.10;;;;;;;;;;4970180;28;20045;-63
2022/04/15 11:18:50;;;;;;;9.35;4.53;;;;;;;;;;4969681;28;20472;-63
2022/04/15 11:21:18;;;;;;;11.07;5.28;;;;;;;;;;4970052;28;20431;-63
2022/04/15 11:23:48;;;;;;;7.25;3.83;;;;;;;;;;4970657;28;20316;-64
2022/04/15 11:26:15;;;;;;;7.22;4.15;;;;;;;;;;4969369;28;20333;-63
2022/04/15 11:28:44;;;;;;;6.97;4.10;;;;;;;;;;4970252;28;20333;-63
2022/04/15 11:31:25;;;;;;;7.40;3.38;;;;;;;;;;4970688;28;20140;-63
2022/04/15 11:33:51;;;;;;;8.07;3.75;;;;;;;;;;4969351;28;20056;-63
2022/04/15 11:36:20;;;;;;;7.30;3.95;;;;;;;;;;4969932;28;20049;-63
2022/04/15 11:38:46;;;;;;;9.73;4.38;;;;;;;;;;4969020;28;20433;-64
2022/04/15 11:41:19;;;;;;;8.63;3.97;;;;;;;;;;4971036;28;20459;-64
2022/04/15 11:44:04;;;;;;;7.65;4.40;;;;;;;;;;4968868;28;20096;-63
2022/04/15 11:46:35;;;;;;;7.72;4.15;;;;;;;;;;4969655;28;20021;-64
2022/04/15 11:49:01;;;;;;;11.40;3.72;;;;;;;;;;4969317;28;20483;-64
2022/04/15 11:51:30;;;;;;;7.22;3.65;;;;;;;;;;4968958;28;20451;-64
2022/04/15 11:53:57;;;;;;;6.75;3.85;;;;;;;;;;4969901;28;20448;-63
2022/04/15 11:56:29;;;;;;;8.43;4.30;;;;;;;;;;4968909;28;20299;-63
2022/04/15 11:58:56;;;;;;;6.57;3.92;;;;;;;;;;4969872;28;20425;-64
2022/04/15 12:01:26;;;;;;;9.63;3.67;;;;;;;;;;4968962;28;20334;-64
2022/04/15 12:03:51;;;;;;;7.65;3.95;;;;;;;;;;4971378;28;20462;-64
2022/04/15 12:06:17;;;;;;;6.07;3.55;;;;;;;;;;4973142;28;20542;-64
2022/04/15 12:08:42;;;;;;;5.53;3.67;;;;;;;;;;4973932;28;20025;-64
2022/04/15 12:11:09;;;;;;;7.75;3.20;;;;;;;;;;4973223;28;20363;-64
2022/04/15 12:13:34;;;;;;;7.35;3.58;;;;;;;;;;4974613;28;20420;-64
2022/04/15 12:15:59;;;;;;;6.40;3.63;;;;;;;;;;4972876;28;20409;-64
2022/04/15 12:18:25;;;;;;;6.07;3.58;;;;;;;;;;4974069;28;20043;-64
2022/04/15 12:20:50;;;;;;;7.85;3.70;;;;;;;;;;4972773;28;20309;-64
2022/04/15 12:23:16;;;;;;;8.65;3.72;;;;;;;;;;4972692;28;20553;-64
2022/04/15 12:26:15;;;;;;;7.28;4.15;;;;;;;;;;4972332;28;20441;-65
2022/04/15 12:31:31;;;;;;;8.07;3.85;;;;;;;;;;4972648;28;20385;-65
2022/04/15 12:33:58;;;;;;;8.02;3.40;;;;;;;;;;4972581;28;20329;-65
2022/04/15 12:36:23;;;;;;;7.28;3.97;;;;;;;;;;4972616;28;20314;-64
2022/04/15 12:39:04;;;;;;;5.68;4.20;;;;;;;;;;4972769;28;20041;-65
2022/04/15 12:41:42;;;;;;;7.32;3.17;;;;;;;;;;4972606;28;20368;-65
2022/04/15 12:44:23;;;;;;;5.25;3.13;;;;;;;;;;4972147;28;20045;-65
2022/04/15 12:47:00;;;;;;;7.35;3.58;;;;;;;;;;4972235;28;20145;-64
2022/04/15 12:49:34;;;;;;;5.88;2.90;;;;;;;;;;4972241;28;20443;-64
2022/04/15 12:52:13;;;;;;;5.38;3.10;;;;;;;;;;4972621;28;20079;-65
2022/04/15 12:55:01;;;;;;;6.85;3.38;;;;;;;;;;4972034;28;20443;-64
2022/04/15 12:57:31;;;;;;;5.97;2.85;;;;;;;;;;4972370;28;20053;-65
2022/04/15 12:59:57;;;;;;;6.03;3.10;;;;;;;;;;4972727;28;20463;-64
2022/04/15 13:02:23;;;;;;;5.35;3.00;;;;;;;;;;4972142;28;20628;-65
2022/04/15 13:04:55;;;;;;;7.18;3.40;;;;;;;;;;4972482;28;20396;-64
2022/04/15 13:07:21;;;;;;;5.15;3.20;;;;;;;;;;4971840;28;20490;-65
2022/04/15 13:09:47;;;;;;;5.95;3.20;;;;;;;;;;4972694;28;20403;-64
2022/04/15 13:12:13;;;;;;;5.72;3.35;;;;;;;;;;4971905;28;20343;-65
2022/04/15 13:14:38;;;;;;;5.28;2.70;;;;;;;;;;4970806;28;20524;-64
2022/04/15 13:17:04;;;;;;;5.82;3.08;;;;;;;;;;4970108;28;20436;-65
2022/04/15 13:19:29;;;;;;;3.25;2.67;;;;;;;;;;4971676;28;20360;-65
2022/04/15 13:21:54;;;;;;;8.02;3.03;;;;;;;;;;4971723;28;20345;-65
2022/04/15 13:24:20;;;;;;;5.00;3.38;;;;;;;;;;4971195;28;20440;-65
2022/04/15 13:26:45;;;;;;;6.72;3.25;;;;;;;;;;4971441;28;20376;-65
2022/04/15 13:29:10;;;;;;;4.25;3.03;;;;;;;;;;4971516;28;20380;-65
2022/04/15 13:31:36;;;;;;;4.55;2.70;;;;;;;;;;4971291;28;20022;-64
2022/04/15 13:34:01;;;;;;;6.65;3.13;;;;;;;;;;4973323;28;20341;-65
2022/04/15 13:36:27;;;;;;;5.95;3.25;;;;;;;;;;4971748;28;20432;-65
2022/04/15 13:38:52;;;;;;;7.38;3.20;;;;;;;;;;4971408;28;20033;-64
2022/04/15 13:41:18;;;;;;;5.55;3.13;;;;;;;;;;4971486;28;20029;-65
2022/04/15 13:43:43;;;;;;;4.65;2.25;;;;;;;;;;4971264;28;20456;-65
2022/04/15 13:46:09;;;;;;;4.00;2.20;;;;;;;;;;4971266;28;20515;-65
2022/04/15 13:48:34;;;;;;;8.27;2.92;;;;;;;;;;4971380;28;20419;-65
2022/04/15 13:50:59;;;;;;;7.43;3.10;;;;;;;;;;4971347;28;20431;-65
2022/04/15 13:58:53;;;;;;;5.80;2.88;;;;;;;;;;4971662;28;20416;-65
2022/04/15 14:01:26;;;;;;;3.85;2.50;;;;;;;;;;4970888;28;20433;-65
2022/04/15 14:03:53;;;;;;;4.15;2.97;;;;;;;;;;4970705;28;20543;-64
2022/04/15 14:06:18;;;;;;;5.45;2.75;;;;;;;;;;4971117;28;20314;-64
2022/04/15 14:08:45;;;;;;;6.60;2.95;;;;;;;;;;4970784;28;20333;-63
2022/04/15 14:11:12;;;;;;;6.35;3.10;;;;;;;;;;4971628;28;20029;-64
2022/04/15 14:13:38;;;;;;;4.60;2.33;;;;;;;;;;4970499;28;20433;-62
2022/04/15 14:16:04;;;;;;;4.43;2.63;;;;;;;;;;4970914;28;20467;-63
2022/04/15 14:18:29;;;;;;;2.95;1.92;;;;;;;;;;4970785;28;20376;-63
2022/04/15 14:20:54;;;;;;;4.00;2.58;;;;;;;;;;4970766;28;20413;-63
2022/04/15 14:23:20;;;;;;;3.83;2.30;;;;;;;;;;4972048;28;20408;-62
2022/04/15 14:25:46;;;;;;;4.15;2.53;;;;;;;;;;4970665;28;20386;-62
2022/04/15 14:28:11;;;;;;;5.13;2.47;;;;;;;;;;4970430;28;20055;-62
2022/04/15 14:30:36;;;;;;;5.32;2.67;;;;;;;;;;4970624;28;20321;-63
2022/04/15 14:33:02;;;;;;;3.72;2.30;;;;;;;;;;4970837;28;20458;-63
2022/04/15 14:35:28;;;;;;;3.65;2.28;;;;;;;;;;4970548;28;20520;-62
2022/04/15 14:37:53;;;;;;;4.38;2.40;;;;;;;;;;4970916;28;20428;-63
2022/04/15 14:40:18;;;;;;;4.53;2.10;;;;;;;;;;4970697;28;20324;-63